Hines Creek, Canada
Current Conditions -  °F | °C
As of 3:00 PM on Tuesday 25 Nov 2014 (Local Time) from CYPE Reporting Station
Light Snow Light Snow  
Wind Chill: -18°   Ceiling: 1800
Heat Index: -13°   Visibility: 12mi
Dew Point: -16°   Wind: 5mph
Humidity: 79%   Direction: 90°E
Pressure: 30.19"   Gusts: NA
Location:  56.23°N, 118.6°W
Report Text: CYPE 252200Z 09004KT 12SM -SN OVC018 M13/M16 A3019 RMK SC8 SLP272
Loading
Personal Weather Stations






























Interactive Weather Map New forecast layout! Learn more

10-Day Weather Forecast

Advertisements
Track Severe Weather on mobile